createdAt,value
2023-01-15T00:03:02.833Z,1.90
2023-01-15T00:08:04.956Z,1.70
2023-01-15T00:13:06.882Z,1.30
2023-01-15T00:18:08.707Z,1.70
2023-01-15T00:23:30.534Z,1.83
2023-01-15T00:28:32.349Z,1.60
2023-01-15T00:33:34.188Z,2.00
2023-01-15T00:38:36.097Z,1.40
2023-01-15T00:43:37.953Z,1.33
2023-01-15T00:48:40.607Z,0.90
2023-01-15T00:53:42.491Z,1.07
2023-01-15T00:58:46.297Z,1.30
2023-01-15T01:03:50.173Z,1.30
2023-01-15T01:08:52.039Z,0.70
2023-01-15T01:13:55.362Z,0.80
2023-01-15T01:18:58.602Z,1.00
2023-01-15T01:24:01.180Z,0.90
2023-01-15T01:29:03.944Z,0.80
2023-01-15T01:34:05.762Z,0.70
2023-01-15T01:39:10.719Z,1.20
2023-01-15T01:44:37.326Z,1.10
2023-01-15T01:49:40.571Z,1.10
2023-01-15T01:54:44.585Z,0.90
2023-01-15T01:59:47.913Z,1.00
2023-01-15T02:04:52.108Z,1.10
2023-01-15T02:09:54.026Z,0.90
2023-01-15T02:15:19.079Z,1.17
2023-01-15T02:20:36.571Z,0.83
2023-01-15T02:25:49.890Z,0.70
2023-01-15T02:31:00.082Z,0.80
2023-01-15T02:36:06.786Z,1.00
2023-01-15T02:41:16.410Z,1.33
2023-01-15T02:46:22.592Z,0.90
2023-01-15T02:51:36.221Z,0.80
2023-01-15T02:56:40.998Z,0.90
2023-01-15T03:01:51.428Z,1.07
2023-01-15T03:07:06.441Z,1.03
2023-01-15T03:12:17.978Z,0.87
2023-01-15T03:17:49.979Z,0.80
2023-01-15T03:22:59.374Z,0.90
2023-01-15T03:28:04.166Z,1.00
2023-01-15T03:33:11.428Z,1.00
2023-01-15T03:38:17.854Z,0.80
2023-01-15T03:43:42.027Z,1.00
2023-01-15T03:49:02.869Z,0.87
2023-01-15T03:54:12.512Z,1.00
2023-01-15T03:59:23.079Z,0.80
2023-01-15T04:04:33.677Z,0.80
2023-01-15T04:09:39.751Z,0.80
2023-01-15T04:14:44.656Z,1.07
2023-01-15T04:19:51.936Z,0.70
2023-01-15T04:24:55.162Z,1.00
2023-01-15T04:29:57.175Z,0.80
2023-01-15T04:34:58.966Z,0.80
2023-01-15T04:40:00.750Z,0.80
2023-01-15T04:45:02.598Z,0.90
2023-01-15T04:50:04.577Z,0.70
2023-01-15T04:55:06.597Z,0.90
2023-01-15T05:00:09.262Z,0.90
2023-01-15T05:05:11.113Z,1.00
2023-01-15T05:10:12.924Z,0.90
2023-01-15T05:15:14.768Z,0.80
2023-01-15T05:20:16.716Z,0.90
2023-01-15T05:25:18.563Z,0.60
2023-01-15T05:30:20.414Z,0.70
2023-01-15T05:35:22.193Z,0.70
2023-01-15T05:40:24.021Z,0.80
2023-01-15T05:45:25.860Z,0.80
2023-01-15T05:50:29.012Z,0.73
2023-01-15T05:55:30.921Z,0.70
2023-01-15T06:00:32.791Z,0.90
2023-01-15T06:05:34.639Z,0.80
2023-01-15T06:10:36.516Z,0.90
2023-01-15T06:15:38.629Z,1.03
2023-01-15T06:20:42.996Z,0.73
2023-01-15T06:25:45.098Z,0.90
2023-01-15T06:30:47.021Z,1.00
2023-01-15T06:35:48.958Z,1.00
2023-01-15T06:40:50.766Z,0.93
2023-01-15T06:46:11.687Z,0.90
2023-01-15T06:51:15.670Z,0.90
2023-01-15T06:56:17.643Z,1.03
2023-01-15T07:01:19.539Z,0.87
2023-01-15T07:06:21.462Z,0.90
2023-01-15T07:11:23.817Z,0.80
2023-01-15T07:16:28.434Z,1.00
2023-01-15T07:21:30.506Z,1.57
2023-01-15T07:26:32.434Z,0.83
2023-01-15T07:31:36.767Z,0.80
2023-01-15T07:36:38.871Z,0.83
2023-01-15T07:41:59.814Z,1.00
2023-01-15T07:47:21.283Z,1.23
2023-01-15T07:52:23.305Z,1.23
2023-01-15T07:57:25.337Z,0.90
2023-01-15T08:02:27.448Z,0.90
2023-01-15T08:07:29.380Z,0.90
2023-01-15T08:12:49.973Z,1.20
2023-01-15T08:17:52.693Z,1.10
2023-01-15T08:22:54.854Z,1.40
2023-01-15T08:28:02.198Z,2.43
2023-01-15T08:33:04.246Z,1.10
2023-01-15T08:38:07.523Z,0.97
2023-01-15T08:43:09.459Z,1.20
2023-01-15T08:48:11.325Z,0.60
2023-01-15T08:53:13.406Z,0.60
2023-01-15T08:58:15.772Z,0.80
2023-01-15T09:03:17.678Z,0.50
2023-01-15T09:08:20.402Z,0.60
2023-01-15T09:13:22.510Z,0.60
2023-01-15T09:18:24.572Z,0.60
2023-01-15T09:23:26.487Z,0.57
2023-01-15T09:28:29.448Z,0.60
2023-01-15T09:33:34.568Z,0.80
2023-01-15T09:38:36.503Z,0.60
2023-01-15T09:43:59.182Z,0.77
2023-01-15T09:49:23.948Z,0.50
2023-01-15T09:54:53.758Z,0.50
2023-01-15T10:00:28.515Z,0.60
2023-01-15T10:05:55.730Z,0.50
2023-01-15T10:11:04.549Z,0.70
2023-01-15T10:16:15.968Z,1.20
2023-01-15T10:21:51.890Z,0.80
2023-01-15T10:26:59.230Z,0.70
2023-01-15T10:32:13.859Z,0.90
2023-01-15T10:38:06.552Z,0.70
2023-01-15T10:44:31.583Z,0.70
2023-01-15T10:49:39.436Z,0.70
2023-01-15T10:54:48.210Z,0.57
2023-01-15T11:50:54.779Z,0.70
2023-01-15T11:56:02.763Z,0.50
2023-01-15T12:01:04.856Z,0.60
2023-01-15T12:06:14.948Z,0.60
2023-01-15T12:11:27.348Z,0.83
2023-01-15T12:17:19.458Z,0.73
2023-01-15T12:22:30.067Z,0.60
2023-01-15T12:27:52.248Z,0.70
2023-01-15T12:33:14.134Z,0.63
2023-01-15T12:38:27.013Z,0.60
2023-01-15T12:44:07.901Z,0.60
2023-01-15T12:49:15.045Z,0.60
2023-01-15T12:54:24.111Z,0.50
2023-01-15T12:59:30.328Z,0.70
2023-01-15T13:04:46.443Z,0.53
2023-01-15T13:09:48.192Z,0.60
2023-01-15T13:14:52.332Z,0.60
2023-01-15T13:20:12.536Z,0.60
2023-01-15T13:25:52.697Z,0.70
2023-01-15T13:31:19.915Z,0.70
2023-01-15T13:36:42.801Z,0.60
2023-01-15T13:42:11.026Z,0.80
2023-01-15T13:47:21.029Z,0.70
2023-01-15T13:52:26.601Z,0.67
2023-01-15T13:57:37.204Z,0.83
2023-01-15T14:02:41.023Z,0.70
2023-01-15T14:07:42.912Z,0.80
2023-01-15T14:13:18.656Z,0.57
2023-01-15T14:18:26.627Z,0.70
2023-01-15T14:23:43.873Z,0.70
2023-01-15T14:29:07.393Z,0.80
2023-01-15T14:34:30.249Z,0.60
2023-01-15T14:39:48.851Z,0.70
2023-01-15T14:45:36.672Z,0.77
2023-01-15T14:50:40.971Z,0.60
2023-01-15T14:56:16.389Z,0.60
2023-01-15T15:01:27.632Z,0.60
2023-01-15T15:06:30.443Z,0.70
2023-01-15T15:12:06.543Z,0.60
2023-01-15T15:17:21.118Z,0.60
2023-01-15T15:22:26.612Z,0.70
2023-01-15T15:27:28.576Z,0.70
2023-01-15T15:32:30.738Z,0.60
2023-01-15T15:37:34.989Z,0.60
2023-01-15T15:43:00.622Z,0.70
2023-01-15T15:48:39.242Z,0.70
2023-01-15T15:53:41.202Z,0.77
2023-01-15T15:58:43.705Z,0.63
2023-01-15T16:03:48.080Z,0.80
2023-01-15T16:09:01.614Z,0.90
2023-01-15T16:14:12.540Z,0.80
2023-01-15T16:19:19.542Z,0.50
2023-01-15T16:24:29.456Z,0.70
2023-01-15T16:29:33.571Z,0.70
2023-01-15T16:34:35.936Z,0.60
2023-01-15T16:39:45.009Z,0.80
2023-01-15T16:44:54.066Z,0.80
2023-01-15T16:50:23.822Z,0.70
2023-01-15T16:55:34.761Z,0.93
2023-01-15T17:00:36.954Z,0.80
2023-01-15T17:05:39.208Z,0.90
2023-01-15T17:10:52.835Z,0.90
2023-01-15T17:16:22.336Z,0.70
2023-01-15T17:21:28.612Z,0.57
2023-01-15T17:26:30.566Z,0.73
2023-01-15T17:31:34.244Z,0.80
2023-01-15T17:36:36.145Z,0.80
2023-01-15T17:41:38.092Z,1.03
2023-01-15T17:46:40.028Z,0.83
2023-01-15T17:51:42.652Z,0.87
2023-01-15T17:57:02.904Z,0.80
2023-01-15T18:02:29.453Z,0.70
2023-01-15T18:07:35.964Z,0.97
2023-01-15T18:12:37.833Z,0.83
2023-01-15T18:17:39.653Z,0.70
2023-01-15T18:22:41.560Z,0.70
2023-01-15T18:27:43.577Z,0.60
2023-01-15T18:32:46.006Z,0.83
2023-01-15T18:37:47.885Z,0.90
2023-01-15T18:43:08.154Z,0.80
2023-01-15T18:48:10.320Z,0.83
2023-01-15T18:53:13.196Z,0.93
2023-01-15T18:58:15.248Z,0.83
2023-01-15T19:03:17.095Z,0.90
2023-01-15T19:08:19.628Z,0.70
2023-01-15T19:13:21.444Z,1.10
2023-01-15T19:18:41.686Z,1.17
2023-01-15T19:23:43.577Z,1.20
2023-01-15T19:28:47.528Z,1.20
2023-01-15T19:33:49.643Z,0.73
2023-01-15T19:38:51.541Z,1.33
2023-01-15T19:44:11.839Z,1.00
2023-01-15T19:49:37.247Z,0.70
2023-01-15T19:54:57.397Z,1.00
2023-01-15T19:59:59.253Z,0.73
2023-01-15T20:05:01.045Z,0.63
2023-01-15T20:10:03.144Z,0.80
2023-01-15T20:15:05.516Z,0.80
2023-01-15T20:20:08.220Z,0.80
2023-01-15T20:25:10.560Z,0.80
2023-01-15T20:30:14.858Z,0.70
2023-01-15T20:35:23.313Z,1.13
2023-01-15T20:40:25.925Z,0.93
2023-01-15T20:45:27.985Z,1.77
2023-01-15T20:50:36.475Z,1.10
2023-01-15T20:55:54.759Z,0.70
2023-01-15T21:01:03.942Z,1.07
2023-01-15T21:06:07.140Z,0.77
2023-01-15T21:11:08.935Z,0.80
2023-01-15T21:16:17.332Z,0.70
2023-01-15T21:21:26.543Z,0.97
2023-01-15T21:33:21.200Z,0.60
2023-01-15T21:45:25.487Z,0.87
2023-01-15T21:50:28.568Z,1.03
2023-01-15T21:55:31.273Z,1.00
2023-01-15T22:00:34.211Z,1.73
2023-01-15T22:05:37.638Z,1.10
2023-01-15T22:10:40.843Z,0.80
2023-01-15T22:15:55.659Z,0.90
2023-01-15T22:21:00.832Z,0.70
2023-01-15T22:26:09.488Z,0.80
2023-01-15T22:31:35.003Z,0.90
2023-01-15T22:36:38.265Z,0.90
2023-01-15T22:41:59.540Z,0.80
2023-01-15T22:47:12.306Z,0.63
2023-01-15T22:52:15.455Z,0.60
2023-01-15T22:57:21.313Z,0.70
2023-01-15T23:02:43.042Z,0.70
2023-01-15T23:08:02.610Z,0.83
2023-01-15T23:13:06.190Z,0.53
2023-01-15T23:18:15.546Z,1.00
2023-01-15T23:23:22.243Z,0.93
2023-01-15T23:28:29.313Z,0.80
2023-01-15T23:33:33.146Z,0.60
2023-01-15T23:50:09.958Z,0.70
2023-01-15T23:55:15.026Z,0.63
